Peace River Airport
CYPE : now visible

Airfield :











YOU CAN JOIN US ON...

 
LOGIN :

Register | Disclaimer

   EN    FR    IT 

 









Legend :    VFR   Marginal VFR   IFR   Intensive IFR   Very Intensive IFR
Visi :
Ceiling :
>= 8 km
>= 3000ft
5 to 8 km
1000 to 3000 ft
1500m to 5 km
500 to 1000 ft
800 to 1500m
200 to 500 ft
< 800m
< 200 ft
Symbols :   Thunderstorms  Fog  Heavy snow  Heavy precipitations  Wind > 20 kt






- Airport Elevation : 1873 ft
- IATA code : YPE


CYPE - Peace River

CURRENT METAR :
  • 160600Z 32015KT 15SM SCT080 BKN210 14/04 A2980 RMK AC4CI3 SLP099 DENSITY ALT 2300FT

EXPIRED METARs :
  • 160500Z 29016KT 15SM FEW070 BKN210 15/04 A2978 RMK CU1CS6 SLP096 DENSITY ALT 2500FT
  • 160400Z 28015KT 15SM FEW070 SCT110 OVC250 15/03 A2978 RMK CU1AC2CS5 SLP094 DENSITY ALT 2500FT

TAF TAF CYPE
Valid from the 16 at 01:00 until the 16 at 13:00 UTC


160038Z 1601/1613 30015G25KT P6SM BKN070 BKN140 BKN250
BECMG 1601/1603 32010KT
BECMG 1604/1606 36008KT
FM160900 01006KT P6SM SCT060 BKN140
TEMPO 1609/1613 BKN060 BKN140 RMK NXT FCST BY 160700Z
CZEG FIR / North America



MET'MAP, your aeronautical weather chart ! - Copyright ORBIFLY December 2007 - Disclaimer

ORBIFLY MET'MAP TEAM :

Programming & Development : Alexandra Zaïnal
Concept & original design : Baudouin d'Aumeries
Assistance for programming : Marc-Olivier Méhu
Technical & hardware support : Manuel Goepfert

Contact : metmap@orbifly.com




SOURCES & CREDITS :

   NOAA       Earth
Advisory